sensor_id;sensor_type;location;lat;lon;timestamp;temperature;humidity
16980;DHT22;42288;52.182;21.156;2023-08-06T00:00:38;20.00;99.90
16980;DHT22;42288;52.182;21.156;2023-08-06T00:03:04;20.10;99.90
16980;DHT22;42288;52.182;21.156;2023-08-06T00:05:30;20.00;99.90
16980;DHT22;42288;52.182;21.156;2023-08-06T00:07:55;20.00;99.90
16980;DHT22;42288;52.182;21.156;2023-08-06T00:10:21;19.90;99.90
16980;DHT22;42288;52.182;21.156;2023-08-06T00:12:46;19.90;99.90
16980;DHT22;42288;52.182;21.156;2023-08-06T00:15:12;19.90;99.90
16980;DHT22;42288;52.182;21.156;2023-08-06T00:17:38;19.90;99.90
16980;DHT22;42288;52.182;21.156;2023-08-06T00:20:04;19.90;99.90
16980;DHT22;42288;52.182;21.156;2023-08-06T00:22:38;19.80;99.90
16980;DHT22;42288;52.182;21.156;2023-08-06T00:25:04;19.80;99.90
16980;DHT22;42288;52.182;21.156;2023-08-06T00:27:30;19.80;99.90
16980;DHT22;42288;52.182;21.156;2023-08-06T00:29:57;19.80;99.90
16980;DHT22;42288;52.182;21.156;2023-08-06T00:32:24;19.70;99.90
16980;DHT22;42288;52.182;21.156;2023-08-06T00:34:49;19.80;99.90
16980;DHT22;42288;52.182;21.156;2023-08-06T00:37:18;19.80;99.90
16980;DHT22;42288;52.182;21.156;2023-08-06T00:39:44;19.80;99.90
16980;DHT22;42288;52.182;21.156;2023-08-06T00:42:10;19.80;99.90
16980;DHT22;42288;52.182;21.156;2023-08-06T00:44:37;19.70;99.90
16980;DHT22;42288;52.182;21.156;2023-08-06T00:47:03;19.70;99.90
16980;DHT22;42288;52.182;21.156;2023-08-06T00:49:29;19.70;99.90
16980;DHT22;42288;52.182;21.156;2023-08-06T00:51:55;19.70;99.90
16980;DHT22;42288;52.182;21.156;2023-08-06T00:54:21;19.60;99.90
16980;DHT22;42288;52.182;21.156;2023-08-06T00:56:47;19.60;99.90
16980;DHT22;42288;52.182;21.156;2023-08-06T00:59:14;19.60;99.90
16980;DHT22;42288;52.182;21.156;2023-08-06T01:01:39;19.60;99.90
16980;DHT22;42288;52.182;21.156;2023-08-06T01:04:05;19.60;99.90
16980;DHT22;42288;52.182;21.156;2023-08-06T01:12:45;19.50;99.90
16980;DHT22;42288;52.182;21.156;2023-08-06T01:14:57;19.60;99.90
16980;DHT22;42288;52.182;21.156;2023-08-06T01:17:26;19.60;99.90
16980;DHT22;42288;52.182;21.156;2023-08-06T01:19:52;19.50;99.90
16980;DHT22;42288;52.182;21.156;2023-08-06T01:22:18;19.50;99.90
16980;DHT22;42288;52.182;21.156;2023-08-06T01:24:47;19.50;99.90
16980;DHT22;42288;52.182;21.156;2023-08-06T01:27:38;19.50;99.90
16980;DHT22;42288;52.182;21.156;2023-08-06T01:30:29;19.50;99.90
16980;DHT22;42288;52.182;21.156;2023-08-06T01:33:00;19.50;99.90
16980;DHT22;42288;52.182;21.156;2023-08-06T01:35:29;19.50;99.90
16980;DHT22;42288;52.182;21.156;2023-08-06T01:37:55;19.50;99.90
16980;DHT22;42288;52.182;21.156;2023-08-06T01:40:22;19.50;99.90
16980;DHT22;42288;52.182;21.156;2023-08-06T01:42:47;19.50;99.90
16980;DHT22;42288;52.182;21.156;2023-08-06T01:45:13;19.60;99.90
16980;DHT22;42288;52.182;21.156;2023-08-06T01:47:38;19.60;99.90
16980;DHT22;42288;52.182;21.156;2023-08-06T01:50:04;19.60;99.90
16980;DHT22;42288;52.182;21.156;2023-08-06T01:52:30;19.60;99.90
16980;DHT22;42288;52.182;21.156;2023-08-06T01:54:55;19.70;99.90
16980;DHT22;42288;52.182;21.156;2023-08-06T01:57:21;19.70;99.90
16980;DHT22;42288;52.182;21.156;2023-08-06T01:59:47;19.70;99.90
16980;DHT22;42288;52.182;21.156;2023-08-06T02:02:12;19.70;99.90
16980;DHT22;42288;52.182;21.156;2023-08-06T02:04:38;19.70;99.90
16980;DHT22;42288;52.182;21.156;2023-08-06T02:07:04;19.70;99.90
16980;DHT22;42288;52.182;21.156;2023-08-06T02:09:29;19.70;99.90
16980;DHT22;42288;52.182;21.156;2023-08-06T02:11:55;19.60;99.90
16980;DHT22;42288;52.182;21.156;2023-08-06T02:14:20;19.60;99.90
16980;DHT22;42288;52.182;21.156;2023-08-06T02:16:46;19.70;99.90
16980;DHT22;42288;52.182;21.156;2023-08-06T02:19:11;19.70;99.90
16980;DHT22;42288;52.182;21.156;2023-08-06T02:21:37;19.70;99.90
16980;DHT22;42288;52.182;21.156;2023-08-06T02:24:02;19.70;99.90
16980;DHT22;42288;52.182;21.156;2023-08-06T02:26:28;19.80;99.90
16980;DHT22;42288;52.182;21.156;2023-08-06T02:28:54;19.80;99.90
16980;DHT22;42288;52.182;21.156;2023-08-06T02:31:19;19.80;99.90
16980;DHT22;42288;52.182;21.156;2023-08-06T02:33:45;19.80;99.90
16980;DHT22;42288;52.182;21.156;2023-08-06T02:36:10;19.80;99.90
16980;DHT22;42288;52.182;21.156;2023-08-06T02:38:36;19.80;99.90
16980;DHT22;42288;52.182;21.156;2023-08-06T02:41:04;19.80;99.90
16980;DHT22;42288;52.182;21.156;2023-08-06T02:43:30;19.90;99.90
16980;DHT22;42288;52.182;21.156;2023-08-06T02:46:00;19.90;99.90
16980;DHT22;42288;52.182;21.156;2023-08-06T02:48:25;19.80;99.90
16980;DHT22;42288;52.182;21.156;2023-08-06T02:50:51;19.80;99.90
16980;DHT22;42288;52.182;21.156;2023-08-06T02:53:17;19.80;99.90
16980;DHT22;42288;52.182;21.156;2023-08-06T02:55:46;19.80;99.90
16980;DHT22;42288;52.182;21.156;2023-08-06T02:58:15;19.80;99.90
16980;DHT22;42288;52.182;21.156;2023-08-06T03:00:41;19.90;99.90
16980;DHT22;42288;52.182;21.156;2023-08-06T03:03:08;19.80;99.90
16980;DHT22;42288;52.182;21.156;2023-08-06T03:05:34;19.90;99.90
16980;DHT22;42288;52.182;21.156;2023-08-06T03:08:00;19.90;99.90
16980;DHT22;42288;52.182;21.156;2023-08-06T03:10:26;20.00;99.90
16980;DHT22;42288;52.182;21.156;2023-08-06T03:12:51;20.00;99.90
16980;DHT22;42288;52.182;21.156;2023-08-06T03:15:17;20.00;99.90
16980;DHT22;42288;52.182;21.156;2023-08-06T03:17:42;20.00;99.90
16980;DHT22;42288;52.182;21.156;2023-08-06T03:20:10;20.00;99.90
16980;DHT22;42288;52.182;21.156;2023-08-06T03:22:35;19.90;99.90
16980;DHT22;42288;52.182;21.156;2023-08-06T03:25:01;20.00;99.90
16980;DHT22;42288;52.182;21.156;2023-08-06T03:27:26;20.00;99.90
16980;DHT22;42288;52.182;21.156;2023-08-06T03:29:52;19.90;99.90
16980;DHT22;42288;52.182;21.156;2023-08-06T03:32:18;20.00;99.90
16980;DHT22;42288;52.182;21.156;2023-08-06T03:34:43;20.00;99.90
16980;DHT22;42288;52.182;21.156;2023-08-06T03:37:09;20.00;99.90
16980;DHT22;42288;52.182;21.156;2023-08-06T03:39:34;20.10;99.90
16980;DHT22;42288;52.182;21.156;2023-08-06T03:42:00;20.00;99.90
16980;DHT22;42288;52.182;21.156;2023-08-06T03:44:27;20.00;99.90
16980;DHT22;42288;52.182;21.156;2023-08-06T03:46:53;20.00;99.90
16980;DHT22;42288;52.182;21.156;2023-08-06T03:49:19;20.10;99.90
16980;DHT22;42288;52.182;21.156;2023-08-06T03:51:44;20.10;99.90
16980;DHT22;42288;52.182;21.156;2023-08-06T03:54:10;20.10;99.90
16980;DHT22;42288;52.182;21.156;2023-08-06T03:56:35;20.20;99.90
16980;DHT22;42288;52.182;21.156;2023-08-06T03:59:01;20.20;99.90
16980;DHT22;42288;52.182;21.156;2023-08-06T04:01:26;20.20;99.90
16980;DHT22;42288;52.182;21.156;2023-08-06T04:03:52;20.20;99.90
16980;DHT22;42288;52.182;21.156;2023-08-06T04:06:18;20.20;99.90
16980;DHT22;42288;52.182;21.156;2023-08-06T04:08:43;20.30;99.90
16980;DHT22;42288;52.182;21.156;2023-08-06T04:11:09;20.30;99.90
16980;DHT22;42288;52.182;21.156;2023-08-06T04:13:34;20.40;99.90
16980;DHT22;42288;52.182;21.156;2023-08-06T04:16:03;20.50;99.90
16980;DHT22;42288;52.182;21.156;2023-08-06T04:18:29;20.40;99.90
16980;DHT22;42288;52.182;21.156;2023-08-06T04:20:54;20.40;99.90
16980;DHT22;42288;52.182;21.156;2023-08-06T04:23:20;20.40;99.90
16980;DHT22;42288;52.182;21.156;2023-08-06T04:25:46;20.40;99.90
16980;DHT22;42288;52.182;21.156;2023-08-06T04:28:12;20.50;99.90
16980;DHT22;42288;52.182;21.156;2023-08-06T04:30:37;20.50;99.90
16980;DHT22;42288;52.182;21.156;2023-08-06T04:33:03;20.60;99.90
16980;DHT22;42288;52.182;21.156;2023-08-06T04:35:28;20.60;99.90
16980;DHT22;42288;52.182;21.156;2023-08-06T04:37:54;20.70;99.90
16980;DHT22;42288;52.182;21.156;2023-08-06T04:40:20;20.70;99.90
16980;DHT22;42288;52.182;21.156;2023-08-06T04:42:45;20.70;99.90
16980;DHT22;42288;52.182;21.156;2023-08-06T04:45:11;20.90;99.90
16980;DHT22;42288;52.182;21.156;2023-08-06T04:47:36;21.00;99.90
16980;DHT22;42288;52.182;21.156;2023-08-06T04:50:02;21.10;99.90
16980;DHT22;42288;52.182;21.156;2023-08-06T04:52:27;21.20;99.90
16980;DHT22;42288;52.182;21.156;2023-08-06T04:54:54;21.20;99.90
16980;DHT22;42288;52.182;21.156;2023-08-06T04:57:20;21.20;99.90
16980;DHT22;42288;52.182;21.156;2023-08-06T04:59:46;21.20;99.90
16980;DHT22;42288;52.182;21.156;2023-08-06T05:02:11;21.30;99.90
16980;DHT22;42288;52.182;21.156;2023-08-06T05:04:37;21.30;99.90
16980;DHT22;42288;52.182;21.156;2023-08-06T05:07:03;21.30;99.90
16980;DHT22;42288;52.182;21.156;2023-08-06T05:09:29;21.40;99.90
16980;DHT22;42288;52.182;21.156;2023-08-06T05:11:54;21.50;99.90
16980;DHT22;42288;52.182;21.156;2023-08-06T05:14:20;21.60;99.90
16980;DHT22;42288;52.182;21.156;2023-08-06T05:16:45;21.60;99.90
16980;DHT22;42288;52.182;21.156;2023-08-06T05:19:11;21.70;99.90
16980;DHT22;42288;52.182;21.156;2023-08-06T05:21:36;21.70;99.90
16980;DHT22;42288;52.182;21.156;2023-08-06T05:24:02;21.80;99.90
16980;DHT22;42288;52.182;21.156;2023-08-06T05:26:27;21.90;99.90
16980;DHT22;42288;52.182;21.156;2023-08-06T05:28:53;22.00;99.90
16980;DHT22;42288;52.182;21.156;2023-08-06T05:31:18;22.00;99.90
16980;DHT22;42288;52.182;21.156;2023-08-06T05:33:44;22.20;99.90
16980;DHT22;42288;52.182;21.156;2023-08-06T05:36:10;22.20;99.90
16980;DHT22;42288;52.182;21.156;2023-08-06T05:38:35;22.20;99.90
16980;DHT22;42288;52.182;21.156;2023-08-06T05:41:01;22.30;99.90
16980;DHT22;42288;52.182;21.156;2023-08-06T05:43:26;22.40;99.90
16980;DHT22;42288;52.182;21.156;2023-08-06T05:45:52;22.40;99.90
16980;DHT22;42288;52.182;21.156;2023-08-06T05:48:17;22.50;99.90
16980;DHT22;42288;52.182;21.156;2023-08-06T05:50:43;22.50;99.90
16980;DHT22;42288;52.182;21.156;2023-08-06T05:53:09;22.60;99.90
16980;DHT22;42288;52.182;21.156;2023-08-06T05:55:34;22.70;99.90
16980;DHT22;42288;52.182;21.156;2023-08-06T05:58:00;22.70;99.90
16980;DHT22;42288;52.182;21.156;2023-08-06T06:00:26;22.80;99.90
16980;DHT22;42288;52.182;21.156;2023-08-06T06:02:52;22.90;99.90
16980;DHT22;42288;52.182;21.156;2023-08-06T06:05:17;23.00;99.90
16980;DHT22;42288;52.182;21.156;2023-08-06T06:07:43;23.00;99.90
16980;DHT22;42288;52.182;21.156;2023-08-06T06:10:09;23.10;99.90
16980;DHT22;42288;52.182;21.156;2023-08-06T06:12:34;23.10;99.90
16980;DHT22;42288;52.182;21.156;2023-08-06T06:15:00;23.00;99.90
16980;DHT22;42288;52.182;21.156;2023-08-06T06:17:29;23.00;99.90
16980;DHT22;42288;52.182;21.156;2023-08-06T06:19:55;23.20;99.90
16980;DHT22;42288;52.182;21.156;2023-08-06T06:22:20;23.20;99.90
16980;DHT22;42288;52.182;21.156;2023-08-06T06:24:46;23.30;99.90
16980;DHT22;42288;52.182;21.156;2023-08-06T06:27:11;23.40;99.90
16980;DHT22;42288;52.182;21.156;2023-08-06T06:29:37;23.30;99.90
16980;DHT22;42288;52.182;21.156;2023-08-06T06:32:02;23.50;99.90
16980;DHT22;42288;52.182;21.156;2023-08-06T06:34:28;23.50;99.90
16980;DHT22;42288;52.182;21.156;2023-08-06T06:36:54;23.50;99.90
16980;DHT22;42288;52.182;21.156;2023-08-06T06:39:20;23.60;99.90
16980;DHT22;42288;52.182;21.156;2023-08-06T06:41:46;23.60;99.90
16980;DHT22;42288;52.182;21.156;2023-08-06T06:44:12;23.70;99.90
16980;DHT22;42288;52.182;21.156;2023-08-06T06:46:38;23.80;99.90
16980;DHT22;42288;52.182;21.156;2023-08-06T06:49:04;23.90;99.90
16980;DHT22;42288;52.182;21.156;2023-08-06T06:51:29;24.00;99.90
16980;DHT22;42288;52.182;21.156;2023-08-06T06:53:57;24.00;99.90
16980;DHT22;42288;52.182;21.156;2023-08-06T06:56:22;24.00;99.90
16980;DHT22;42288;52.182;21.156;2023-08-06T06:58:48;24.20;99.90
16980;DHT22;42288;52.182;21.156;2023-08-06T07:01:14;24.30;99.90
16980;DHT22;42288;52.182;21.156;2023-08-06T07:03:39;24.30;99.90
16980;DHT22;42288;52.182;21.156;2023-08-06T07:06:05;24.40;99.90
16980;DHT22;42288;52.182;21.156;2023-08-06T07:08:31;24.50;99.90
16980;DHT22;42288;52.182;21.156;2023-08-06T07:11:05;24.40;99.90
16980;DHT22;42288;52.182;21.156;2023-08-06T07:13:31;24.60;99.90
16980;DHT22;42288;52.182;21.156;2023-08-06T07:15:56;24.80;99.90
16980;DHT22;42288;52.182;21.156;2023-08-06T07:18:23;25.00;99.90
16980;DHT22;42288;52.182;21.156;2023-08-06T07:20:49;25.10;99.90
16980;DHT22;42288;52.182;21.156;2023-08-06T07:23:15;25.00;99.90
16980;DHT22;42288;52.182;21.156;2023-08-06T07:25:41;25.10;99.90
16980;DHT22;42288;52.182;21.156;2023-08-06T07:28:06;25.20;99.90
16980;DHT22;42288;52.182;21.156;2023-08-06T07:30:32;25.20;99.90
16980;DHT22;42288;52.182;21.156;2023-08-06T07:32:57;25.30;99.90
16980;DHT22;42288;52.182;21.156;2023-08-06T07:35:23;25.40;99.90
16980;DHT22;42288;52.182;21.156;2023-08-06T07:37:48;25.60;99.90
16980;DHT22;42288;52.182;21.156;2023-08-06T07:40:14;25.50;99.90
16980;DHT22;42288;52.182;21.156;2023-08-06T07:42:40;25.50;99.90
16980;DHT22;42288;52.182;21.156;2023-08-06T07:45:06;25.70;99.90
16980;DHT22;42288;52.182;21.156;2023-08-06T07:47:32;25.90;99.90
16980;DHT22;42288;52.182;21.156;2023-08-06T07:49:57;25.90;99.90
16980;DHT22;42288;52.182;21.156;2023-08-06T07:52:23;26.00;99.90
16980;DHT22;42288;52.182;21.156;2023-08-06T07:54:48;26.10;99.90
16980;DHT22;42288;52.182;21.156;2023-08-06T07:57:14;26.10;99.90
16980;DHT22;42288;52.182;21.156;2023-08-06T07:59:40;26.10;99.90
16980;DHT22;42288;52.182;21.156;2023-08-06T08:02:06;26.20;99.90
16980;DHT22;42288;52.182;21.156;2023-08-06T08:04:31;26.20;99.90
16980;DHT22;42288;52.182;21.156;2023-08-06T08:06:57;26.30;99.90
16980;DHT22;42288;52.182;21.156;2023-08-06T08:09:23;26.30;99.90
16980;DHT22;42288;52.182;21.156;2023-08-06T08:11:48;26.30;99.90
16980;DHT22;42288;52.182;21.156;2023-08-06T08:14:14;26.30;99.90
16980;DHT22;42288;52.182;21.156;2023-08-06T08:16:39;26.40;99.90
16980;DHT22;42288;52.182;21.156;2023-08-06T08:19:05;26.60;99.90
16980;DHT22;42288;52.182;21.156;2023-08-06T08:21:31;26.60;99.90
16980;DHT22;42288;52.182;21.156;2023-08-06T08:23:59;26.80;99.90
16980;DHT22;42288;52.182;21.156;2023-08-06T08:26:25;26.90;99.90
16980;DHT22;42288;52.182;21.156;2023-08-06T08:28:53;27.00;99.90
16980;DHT22;42288;52.182;21.156;2023-08-06T08:31:18;27.00;99.90
16980;DHT22;42288;52.182;21.156;2023-08-06T08:33:44;27.00;99.90
16980;DHT22;42288;52.182;21.156;2023-08-06T08:36:09;27.20;99.90
16980;DHT22;42288;52.182;21.156;2023-08-06T08:38:35;27.30;99.90
16980;DHT22;42288;52.182;21.156;2023-08-06T08:41:01;27.30;99.90
16980;DHT22;42288;52.182;21.156;2023-08-06T08:43:27;27.20;99.90
16980;DHT22;42288;52.182;21.156;2023-08-06T08:45:54;27.10;99.90
16980;DHT22;42288;52.182;21.156;2023-08-06T08:48:24;27.20;99.90
16980;DHT22;42288;52.182;21.156;2023-08-06T08:50:51;27.40;99.90
16980;DHT22;42288;52.182;21.156;2023-08-06T08:53:17;27.40;99.90
16980;DHT22;42288;52.182;21.156;2023-08-06T08:55:46;27.40;99.90
16980;DHT22;42288;52.182;21.156;2023-08-06T08:58:12;27.30;99.90
16980;DHT22;42288;52.182;21.156;2023-08-06T09:00:39;27.40;99.90
16980;DHT22;42288;52.182;21.156;2023-08-06T09:03:06;27.50;99.90
16980;DHT22;42288;52.182;21.156;2023-08-06T09:05:32;27.40;99.90
16980;DHT22;42288;52.182;21.156;2023-08-06T09:08:05;27.50;99.90
16980;DHT22;42288;52.182;21.156;2023-08-06T09:10:30;27.70;99.90
16980;DHT22;42288;52.182;21.156;2023-08-06T09:12:57;27.80;99.90
16980;DHT22;42288;52.182;21.156;2023-08-06T09:15:27;28.00;99.90
16980;DHT22;42288;52.182;21.156;2023-08-06T09:17:53;28.00;99.90
16980;DHT22;42288;52.182;21.156;2023-08-06T09:20:19;28.20;99.90
16980;DHT22;42288;52.182;21.156;2023-08-06T09:22:45;28.10;99.90
16980;DHT22;42288;52.182;21.156;2023-08-06T09:25:24;28.00;99.90
16980;DHT22;42288;52.182;21.156;2023-08-06T09:27:51;28.00;99.90
16980;DHT22;42288;52.182;21.156;2023-08-06T09:30:47;28.00;99.90
16980;DHT22;42288;52.182;21.156;2023-08-06T09:33:18;27.90;99.90
16980;DHT22;42288;52.182;21.156;2023-08-06T09:35:45;28.10;99.90
16980;DHT22;42288;52.182;21.156;2023-08-06T09:38:10;28.40;99.90
16980;DHT22;42288;52.182;21.156;2023-08-06T09:40:37;28.50;99.90
16980;DHT22;42288;52.182;21.156;2023-08-06T09:43:03;28.70;99.90
16980;DHT22;42288;52.182;21.156;2023-08-06T09:45:38;28.80;99.90
16980;DHT22;42288;52.182;21.156;2023-08-06T09:48:05;29.10;99.90
16980;DHT22;42288;52.182;21.156;2023-08-06T09:50:32;28.80;99.90
16980;DHT22;42288;52.182;21.156;2023-08-06T09:52:59;28.70;99.90
16980;DHT22;42288;52.182;21.156;2023-08-06T09:55:25;29.00;99.90
16980;DHT22;42288;52.182;21.156;2023-08-06T09:57:52;28.90;99.90
16980;DHT22;42288;52.182;21.156;2023-08-06T10:00:18;28.80;99.90
16980;DHT22;42288;52.182;21.156;2023-08-06T10:02:44;28.70;99.90
16980;DHT22;42288;52.182;21.156;2023-08-06T10:05:10;28.70;99.90
16980;DHT22;42288;52.182;21.156;2023-08-06T10:07:36;28.80;99.90
16980;DHT22;42288;52.182;21.156;2023-08-06T10:10:04;29.00;99.90
16980;DHT22;42288;52.182;21.156;2023-08-06T10:12:34;29.30;99.90
16980;DHT22;42288;52.182;21.156;2023-08-06T10:15:03;29.40;99.90
16980;DHT22;42288;52.182;21.156;2023-08-06T10:17:31;29.50;99.90
16980;DHT22;42288;52.182;21.156;2023-08-06T10:19:57;29.70;99.90
16980;DHT22;42288;52.182;21.156;2023-08-06T10:22:24;29.90;99.90
16980;DHT22;42288;52.182;21.156;2023-08-06T10:27:35;29.90;99.90
16980;DHT22;42288;52.182;21.156;2023-08-06T10:30:26;30.10;99.90
16980;DHT22;42288;52.182;21.156;2023-08-06T10:33:10;29.90;99.90
16980;DHT22;42288;52.182;21.156;2023-08-06T10:35:48;29.70;99.90
16980;DHT22;42288;52.182;21.156;2023-08-06T10:38:24;29.80;99.90
16980;DHT22;42288;52.182;21.156;2023-08-06T10:43:33;30.40;99.90
16980;DHT22;42288;52.182;21.156;2023-08-06T10:46:04;30.30;99.90
16980;DHT22;42288;52.182;21.156;2023-08-06T10:48:39;30.50;99.70
16980;DHT22;42288;52.182;21.156;2023-08-06T10:51:12;30.70;99.90
16980;DHT22;42288;52.182;21.156;2023-08-06T10:53:42;30.80;99.10
16980;DHT22;42288;52.182;21.156;2023-08-06T10:56:15;30.90;99.30
16980;DHT22;42288;52.182;21.156;2023-08-06T10:58:42;30.40;98.20
16980;DHT22;42288;52.182;21.156;2023-08-06T11:01:07;30.20;99.00
16980;DHT22;42288;52.182;21.156;2023-08-06T11:03:33;31.30;99.20
16980;DHT22;42288;52.182;21.156;2023-08-06T11:05:59;32.20;97.70
16980;DHT22;42288;52.182;21.156;2023-08-06T11:08:26;32.50;96.60
16980;DHT22;42288;52.182;21.156;2023-08-06T11:10:52;33.10;95.90
16980;DHT22;42288;52.182;21.156;2023-08-06T11:13:17;34.00;95.60
16980;DHT22;42288;52.182;21.156;2023-08-06T11:15:45;34.40;93.80
16980;DHT22;42288;52.182;21.156;2023-08-06T11:18:10;34.50;92.40
16980;DHT22;42288;52.182;21.156;2023-08-06T11:20:36;35.20;92.10
16980;DHT22;42288;52.182;21.156;2023-08-06T11:23:02;35.00;88.10
16980;DHT22;42288;52.182;21.156;2023-08-06T11:25:28;34.20;90.10
16980;DHT22;42288;52.182;21.156;2023-08-06T11:27:54;33.90;91.00
16980;DHT22;42288;52.182;21.156;2023-08-06T11:30:20;33.20;90.40
16980;DHT22;42288;52.182;21.156;2023-08-06T11:32:46;32.90;90.60
16980;DHT22;42288;52.182;21.156;2023-08-06T11:35:15;32.90;91.00
16980;DHT22;42288;52.182;21.156;2023-08-06T11:37:45;33.10;90.40
16980;DHT22;42288;52.182;21.156;2023-08-06T11:40:11;33.30;90.40
16980;DHT22;42288;52.182;21.156;2023-08-06T11:42:37;33.20;87.80
16980;DHT22;42288;52.182;21.156;2023-08-06T11:45:03;32.80;87.40
16980;DHT22;42288;52.182;21.156;2023-08-06T11:47:30;32.40;88.70
16980;DHT22;42288;52.182;21.156;2023-08-06T11:49:55;32.10;90.20
16980;DHT22;42288;52.182;21.156;2023-08-06T11:52:25;31.80;90.00
16980;DHT22;42288;52.182;21.156;2023-08-06T11:55:07;31.60;90.20
16980;DHT22;42288;52.182;21.156;2023-08-06T11:57:39;31.40;91.00
16980;DHT22;42288;52.182;21.156;2023-08-06T12:00:09;31.40;91.00
16980;DHT22;42288;52.182;21.156;2023-08-06T12:02:36;31.40;91.40
16980;DHT22;42288;52.182;21.156;2023-08-06T12:05:21;31.30;92.20
16980;DHT22;42288;52.182;21.156;2023-08-06T12:07:52;31.30;92.20
16980;DHT22;42288;52.182;21.156;2023-08-06T12:10:19;31.10;91.90
16980;DHT22;42288;52.182;21.156;2023-08-06T12:12:46;30.90;91.40
16980;DHT22;42288;52.182;21.156;2023-08-06T12:15:11;30.80;92.10
16980;DHT22;42288;52.182;21.156;2023-08-06T12:17:37;30.50;92.20
16980;DHT22;42288;52.182;21.156;2023-08-06T12:20:04;30.30;91.90
16980;DHT22;42288;52.182;21.156;2023-08-06T12:22:30;30.20;92.30
16980;DHT22;42288;52.182;21.156;2023-08-06T12:25:05;30.10;92.50
16980;DHT22;42288;52.182;21.156;2023-08-06T12:27:43;29.90;92.60
16980;DHT22;42288;52.182;21.156;2023-08-06T12:30:11;29.90;93.00
16980;DHT22;42288;52.182;21.156;2023-08-06T12:32:38;29.90;93.60
16980;DHT22;42288;52.182;21.156;2023-08-06T12:35:04;29.80;94.20
16980;DHT22;42288;52.182;21.156;2023-08-06T12:37:30;29.60;94.00
16980;DHT22;42288;52.182;21.156;2023-08-06T12:39:56;29.60;94.80
16980;DHT22;42288;52.182;21.156;2023-08-06T12:42:21;29.40;94.30
16980;DHT22;42288;52.182;21.156;2023-08-06T12:44:50;29.40;94.50
16980;DHT22;42288;52.182;21.156;2023-08-06T12:47:16;29.30;94.20
16980;DHT22;42288;52.182;21.156;2023-08-06T12:49:42;29.20;94.90
16980;DHT22;42288;52.182;21.156;2023-08-06T12:52:08;29.10;95.10
16980;DHT22;42288;52.182;21.156;2023-08-06T12:54:35;29.10;95.20
16980;DHT22;42288;52.182;21.156;2023-08-06T12:57:03;29.00;95.40
16980;DHT22;42288;52.182;21.156;2023-08-06T12:59:28;28.90;95.60
16980;DHT22;42288;52.182;21.156;2023-08-06T13:01:54;28.80;96.00
16980;DHT22;42288;52.182;21.156;2023-08-06T13:04:20;28.70;96.30
16980;DHT22;42288;52.182;21.156;2023-08-06T13:06:45;28.70;96.30
16980;DHT22;42288;52.182;21.156;2023-08-06T13:09:12;28.60;97.90
16980;DHT22;42288;52.182;21.156;2023-08-06T13:11:41;27.40;99.90
16980;DHT22;42288;52.182;21.156;2023-08-06T13:14:11;25.90;99.90
16980;DHT22;42288;52.182;21.156;2023-08-06T13:16:39;24.90;99.90
16980;DHT22;42288;52.182;21.156;2023-08-06T13:19:05;24.70;99.90
16980;DHT22;42288;52.182;21.156;2023-08-06T13:23:58;25.00;99.90
16980;DHT22;42288;52.182;21.156;2023-08-06T13:26:24;25.10;99.90
16980;DHT22;42288;52.182;21.156;2023-08-06T13:28:49;25.20;99.90
16980;DHT22;42288;52.182;21.156;2023-08-06T13:31:16;25.30;99.90
16980;DHT22;42288;52.182;21.156;2023-08-06T13:33:41;25.40;99.90
16980;DHT22;42288;52.182;21.156;2023-08-06T13:36:07;25.50;99.90
16980;DHT22;42288;52.182;21.156;2023-08-06T13:38:32;25.80;99.90
16980;DHT22;42288;52.182;21.156;2023-08-06T13:40:58;25.90;99.90
16980;DHT22;42288;52.182;21.156;2023-08-06T13:43:24;26.10;99.90
16980;DHT22;42288;52.182;21.156;2023-08-06T13:45:50;26.20;99.90
16980;DHT22;42288;52.182;21.156;2023-08-06T13:48:15;26.60;99.90
16980;DHT22;42288;52.182;21.156;2023-08-06T13:50:41;26.70;99.90
16980;DHT22;42288;52.182;21.156;2023-08-06T13:53:06;26.80;99.90
16980;DHT22;42288;52.182;21.156;2023-08-06T13:55:32;26.80;99.90
16980;DHT22;42288;52.182;21.156;2023-08-06T13:57:57;26.90;99.90
16980;DHT22;42288;52.182;21.156;2023-08-06T14:00:23;27.00;99.90
16980;DHT22;42288;52.182;21.156;2023-08-06T14:02:48;26.90;99.90
16980;DHT22;42288;52.182;21.156;2023-08-06T14:05:14;27.00;99.90
16980;DHT22;42288;52.182;21.156;2023-08-06T14:07:39;27.00;99.90
16980;DHT22;42288;52.182;21.156;2023-08-06T14:10:05;27.20;99.90
16980;DHT22;42288;52.182;21.156;2023-08-06T14:12:31;27.30;99.90
16980;DHT22;42288;52.182;21.156;2023-08-06T14:14:57;27.40;99.90
16980;DHT22;42288;52.182;21.156;2023-08-06T14:17:22;27.30;99.90
16980;DHT22;42288;52.182;21.156;2023-08-06T14:19:48;27.40;99.90
16980;DHT22;42288;52.182;21.156;2023-08-06T14:22:13;27.30;99.90
16980;DHT22;42288;52.182;21.156;2023-08-06T14:24:39;27.30;99.90
16980;DHT22;42288;52.182;21.156;2023-08-06T14:27:05;27.20;99.90
16980;DHT22;42288;52.182;21.156;2023-08-06T14:29:31;27.20;99.90
16980;DHT22;42288;52.182;21.156;2023-08-06T14:31:57;27.20;99.90
16980;DHT22;42288;52.182;21.156;2023-08-06T14:34:22;27.30;99.90
16980;DHT22;42288;52.182;21.156;2023-08-06T14:36:48;27.30;99.90
16980;DHT22;42288;52.182;21.156;2023-08-06T14:39:13;27.30;99.90
16980;DHT22;42288;52.182;21.156;2023-08-06T14:41:39;27.40;99.90
16980;DHT22;42288;52.182;21.156;2023-08-06T14:44:05;27.50;99.90
16980;DHT22;42288;52.182;21.156;2023-08-06T14:46:32;27.50;99.90
16980;DHT22;42288;52.182;21.156;2023-08-06T14:48:58;27.50;99.90
16980;DHT22;42288;52.182;21.156;2023-08-06T14:51:23;27.60;99.90
16980;DHT22;42288;52.182;21.156;2023-08-06T14:53:49;27.50;99.90
16980;DHT22;42288;52.182;21.156;2023-08-06T14:56:15;27.40;99.90
16980;DHT22;42288;52.182;21.156;2023-08-06T14:58:40;27.40;99.90
16980;DHT22;42288;52.182;21.156;2023-08-06T15:01:07;27.40;99.90
16980;DHT22;42288;52.182;21.156;2023-08-06T15:03:32;27.40;99.90
16980;DHT22;42288;52.182;21.156;2023-08-06T15:05:58;27.50;99.90
16980;DHT22;42288;52.182;21.156;2023-08-06T15:08:24;27.50;99.90
16980;DHT22;42288;52.182;21.156;2023-08-06T15:10:51;27.60;99.90
16980;DHT22;42288;52.182;21.156;2023-08-06T15:13:18;27.70;99.90
16980;DHT22;42288;52.182;21.156;2023-08-06T15:15:43;27.80;99.90
16980;DHT22;42288;52.182;21.156;2023-08-06T15:18:10;27.70;99.90
16980;DHT22;42288;52.182;21.156;2023-08-06T15:20:36;27.80;99.90
16980;DHT22;42288;52.182;21.156;2023-08-06T15:23:02;27.70;99.90
16980;DHT22;42288;52.182;21.156;2023-08-06T15:25:27;27.70;99.90